createdAt,value
2023-03-20T00:05:25.007Z,99811.75
2023-03-20T00:07:51.866Z,99804.63
2023-03-20T00:10:20.018Z,99797.66
2023-03-20T00:12:48.336Z,99804.63
2023-03-20T00:15:25.881Z,99801.09
2023-03-20T00:17:53.035Z,99807.91
2023-03-20T00:20:20.363Z,99806.28
2023-03-20T00:22:47.426Z,99806.56
2023-03-20T00:27:41.710Z,99802.88
2023-03-20T00:33:00.944Z,99800.00
2023-03-20T00:35:30.129Z,99794.56
2023-03-20T00:37:59.438Z,99786.38
2023-03-20T00:43:00.114Z,99795.94
2023-03-20T00:47:53.708Z,99787.47
2023-03-20T00:50:22.849Z,99785.56
2023-03-20T00:55:18.478Z,99785.84
2023-03-20T01:00:40.672Z,99773.31
2023-03-20T01:03:22.070Z,99771.69
2023-03-20T01:05:50.097Z,99769.91
2023-03-20T01:08:22.454Z,99775.47
2023-03-20T01:10:53.105Z,99769.31
2023-03-20T01:15:49.630Z,99767.13
2023-03-20T01:18:17.800Z,99766.31
2023-03-20T01:23:10.936Z,99770.28
2023-03-20T01:25:38.011Z,99761.56
2023-03-20T01:30:38.446Z,99760.59
2023-03-20T01:33:17.347Z,99761.56
2023-03-20T01:38:18.845Z,99756.91
2023-03-20T01:40:48.342Z,99760.31
2023-03-20T01:43:18.298Z,99760.16
2023-03-20T01:48:51.425Z,99750.28
2023-03-20T02:01:13.118Z,99752.31
2023-03-20T02:08:42.201Z,99747.41
2023-03-20T02:11:08.836Z,99754.59
2023-03-20T02:13:35.961Z,99748.03
2023-03-20T02:16:06.202Z,99741.59
2023-03-20T02:21:26.987Z,99748.41
2023-03-20T02:24:17.443Z,99745.81
2023-03-20T02:26:46.908Z,99744.34
2023-03-20T02:32:21.487Z,99740.25
2023-03-20T02:34:53.906Z,99735.88
2023-03-20T02:38:21.816Z,99737.94
2023-03-20T02:43:42.788Z,99738.47
2023-03-20T02:49:10.178Z,99736.84
2023-03-20T02:54:43.675Z,99728.63
2023-03-20T03:00:01.929Z,99728.78
2023-03-20T03:05:05.530Z,99732.19
2023-03-20T03:10:17.422Z,99732.03
2023-03-20T03:17:55.515Z,99720.56
2023-03-20T03:20:23.708Z,99723.84
2023-03-20T03:25:16.821Z,99720.00
2023-03-20T03:27:47.661Z,99723.84
2023-03-20T03:32:51.244Z,99723.16
2023-03-20T03:47:56.833Z,99714.69
2023-03-20T04:02:56.726Z,99715.59
2023-03-20T04:05:25.246Z,99715.31
2023-03-20T04:07:56.282Z,99718.03
2023-03-20T04:10:22.829Z,99716.13
2023-03-20T04:12:49.370Z,99711.75
2023-03-20T04:15:17.152Z,99708.84
2023-03-20T04:20:11.567Z,99702.41
2023-03-20T04:34:51.120Z,99689.97
2023-03-20T04:37:18.204Z,99692.00
2023-03-20T04:42:11.192Z,99691.63
2023-03-20T04:47:04.156Z,99694.88
2023-03-20T04:51:57.128Z,99685.25
2023-03-20T04:56:50.038Z,99692.16
2023-03-20T05:01:42.923Z,99692.25
2023-03-20T05:11:28.907Z,99697.88
2023-03-20T05:16:22.491Z,99697.50
2023-03-20T05:18:49.058Z,99695.22
2023-03-20T05:21:15.571Z,99693.00
2023-03-20T05:23:42.091Z,99698.75
2023-03-20T05:26:08.651Z,99702.50
2023-03-20T05:28:35.146Z,99699.63
2023-03-20T05:31:01.672Z,99698.13
2023-03-20T05:33:28.307Z,99700.19
2023-03-20T05:35:54.844Z,99696.69
2023-03-20T05:38:21.339Z,99694.16
2023-03-20T05:40:48.214Z,99693.53
2023-03-20T05:43:15.045Z,99688.56
2023-03-20T05:55:28.288Z,99691.00
2023-03-20T05:57:54.760Z,99691.16
2023-03-20T06:00:21.594Z,99694.84
2023-03-20T06:02:48.856Z,99694.63
2023-03-20T06:07:41.989Z,99693.63
2023-03-20T06:10:09.676Z,99697.72
2023-03-20T06:12:36.268Z,99697.28
2023-03-20T06:15:03.145Z,99703.28
2023-03-20T06:17:29.770Z,99700.47
2023-03-20T06:19:57.455Z,99695.31
2023-03-20T06:22:23.969Z,99700.78
2023-03-20T06:24:50.496Z,99695.66
2023-03-20T06:27:16.994Z,99698.22
2023-03-20T06:29:43.511Z,99699.84
2023-03-20T06:32:10.025Z,99694.66
2023-03-20T06:34:36.609Z,99703.50
2023-03-20T06:37:03.158Z,99701.25
2023-03-20T06:39:29.780Z,99703.06
2023-03-20T06:41:56.240Z,99698.78
2023-03-20T06:46:49.416Z,99691.97
2023-03-20T06:49:16.073Z,99686.81
2023-03-20T06:51:42.582Z,99698.53
2023-03-20T06:54:09.127Z,99700.22
2023-03-20T06:56:35.610Z,99696.38
2023-03-20T06:59:02.073Z,99695.84
2023-03-20T07:01:28.575Z,99699.28
2023-03-20T07:03:55.067Z,99699.28
2023-03-20T07:06:21.558Z,99699.47
2023-03-20T07:08:48.106Z,99696.38
2023-03-20T07:11:14.616Z,99685.66
2023-03-20T07:16:08.411Z,99691.50
2023-03-20T07:18:34.961Z,99687.16
2023-03-20T07:23:38.105Z,99683.31
2023-03-20T07:28:31.061Z,99684.13
2023-03-20T07:33:24.125Z,99687.72
2023-03-20T07:38:21.405Z,99688.13
2023-03-20T07:40:48.178Z,99681.84
2023-03-20T07:45:41.926Z,99681.50
2023-03-20T07:48:08.510Z,99683.81
2023-03-20T07:50:35.006Z,99678.91
2023-03-20T07:53:01.614Z,99680.88
2023-03-20T07:55:28.101Z,99681.56
2023-03-20T08:00:21.123Z,99682.06
2023-03-20T08:02:47.898Z,99675.88
2023-03-20T08:07:41.175Z,99676.97
2023-03-20T08:12:35.460Z,99676.84
2023-03-20T08:15:02.030Z,99672.75
2023-03-20T08:17:28.532Z,99664.06
2023-03-20T08:19:55.035Z,99665.53
2023-03-20T08:22:21.563Z,99655.22
2023-03-20T08:24:48.057Z,99652.47
2023-03-20T08:27:14.535Z,99654.41
2023-03-20T08:29:41.081Z,99664.50
2023-03-20T08:32:07.606Z,99655.19
2023-03-20T08:37:03.783Z,99653.88
2023-03-20T08:39:30.377Z,99662.28
2023-03-20T08:41:57.343Z,99654.88
2023-03-20T08:44:24.904Z,99642.44
2023-03-20T08:46:51.374Z,99639.78
2023-03-20T08:49:17.846Z,99642.97
2023-03-20T08:51:44.399Z,99645.88
2023-03-20T08:54:10.919Z,99640.88
2023-03-20T08:56:37.464Z,99641.56
2023-03-20T08:59:04.075Z,99640.53
2023-03-20T09:01:47.918Z,99634.50
2023-03-20T09:04:15.198Z,99634.25
2023-03-20T09:06:41.853Z,99631.28
2023-03-20T09:09:08.477Z,99632.22
2023-03-20T09:11:35.085Z,99626.00
2023-03-20T09:14:02.469Z,99624.81
2023-03-20T09:16:29.045Z,99622.84
2023-03-20T09:18:55.678Z,99622.03
2023-03-20T09:21:22.156Z,99615.53
2023-03-20T09:23:48.646Z,99620.22
2023-03-20T09:26:15.241Z,99618.78
2023-03-20T09:28:41.722Z,99618.59
2023-03-20T09:31:08.259Z,99618.25
2023-03-20T09:33:35.366Z,99623.44
2023-03-20T09:36:01.965Z,99622.09
2023-03-20T09:38:28.726Z,99615.00
2023-03-20T09:41:03.658Z,99618.78
2023-03-20T09:44:00.450Z,99618.94
2023-03-20T09:47:18.327Z,99619.00
2023-03-20T09:50:04.980Z,99614.53
2023-03-20T09:52:36.947Z,99609.09
2023-03-20T09:55:21.257Z,99607.19
2023-03-20T09:57:56.465Z,99610.53
2023-03-20T10:00:27.384Z,99606.56
2023-03-20T10:02:58.885Z,99602.78
2023-03-20T10:05:30.213Z,99601.25
2023-03-20T10:07:59.261Z,99598.72
2023-03-20T10:10:49.245Z,99593.56
2023-03-20T10:13:30.816Z,99596.56
2023-03-20T10:16:09.620Z,99596.63
2023-03-20T10:18:40.258Z,99596.91
2023-03-20T10:21:18.447Z,99593.06
2023-03-20T10:24:02.550Z,99587.63
2023-03-20T10:26:33.848Z,99579.41
2023-03-20T10:29:04.104Z,99579.00
2023-03-20T10:31:54.839Z,99574.66
2023-03-20T10:34:46.569Z,99585.53
2023-03-20T10:37:24.886Z,99568.50
2023-03-20T10:39:56.956Z,99574.94
2023-03-20T10:42:30.415Z,99568.16
2023-03-20T10:45:07.662Z,99565.97
2023-03-20T10:47:39.100Z,99561.44
2023-03-20T10:50:11.129Z,99559.63
2023-03-20T10:52:41.062Z,99554.59
2023-03-20T10:55:16.309Z,99548.00
2023-03-20T10:57:49.172Z,99547.13
2023-03-20T11:00:22.210Z,99546.88
2023-03-20T11:02:48.817Z,99545.25
2023-03-20T11:05:30.662Z,99545.44
2023-03-20T11:08:15.918Z,99548.50
2023-03-20T11:10:44.111Z,99539.66
2023-03-20T11:13:27.030Z,99537.31
2023-03-20T11:15:54.767Z,99530.19
2023-03-20T11:18:25.413Z,99522.78
2023-03-20T11:20:57.579Z,99533.00
2023-03-20T11:23:27.553Z,99524.53
2023-03-20T11:25:58.472Z,99523.16
2023-03-20T11:28:24.882Z,99523.88
2023-03-20T11:31:04.944Z,99527.50
2023-03-20T11:33:36.387Z,99522.34
2023-03-20T11:36:11.158Z,99515.13
2023-03-20T11:38:44.653Z,99519.59
2023-03-20T11:41:18.719Z,99515.25
2023-03-20T11:43:45.372Z,99511.16
2023-03-20T11:46:13.648Z,99511.19
2023-03-20T11:48:45.353Z,99508.91
2023-03-20T11:51:19.189Z,99504.84
2023-03-20T11:53:48.476Z,99504.56
2023-03-20T11:56:22.601Z,99498.22
2023-03-20T11:58:55.877Z,99504.34
2023-03-20T12:01:22.873Z,99502.53
2023-03-20T12:04:02.312Z,99495.97
2023-03-20T12:06:53.891Z,99495.72
2023-03-20T12:09:41.373Z,99492.94
2023-03-20T12:12:19.723Z,99484.22
2023-03-20T12:15:05.581Z,99479.34
2023-03-20T12:17:47.571Z,99478.34
2023-03-20T12:20:32.329Z,99474.09
2023-03-20T12:23:01.795Z,99472.38
2023-03-20T12:25:37.089Z,99463.63
2023-03-20T12:28:17.241Z,99467.31
2023-03-20T12:31:11.497Z,99464.72
2023-03-20T12:33:59.879Z,99456.81
2023-03-20T12:36:36.060Z,99455.19
2023-03-20T12:39:05.442Z,99461.06
2023-03-20T12:41:43.866Z,99455.53
2023-03-20T12:44:16.573Z,99444.63
2023-03-20T12:46:46.035Z,99441.44
2023-03-20T12:49:24.739Z,99439.59
2023-03-20T12:51:57.403Z,99428.84
2023-03-20T12:54:44.075Z,99432.88
2023-03-20T13:00:23.370Z,99436.25
2023-03-20T13:02:53.645Z,99430.56
2023-03-20T13:05:29.083Z,99425.69
2023-03-20T13:08:17.786Z,99419.25
2023-03-20T13:13:36.225Z,99422.31
2023-03-20T13:18:57.798Z,99422.09
2023-03-20T13:21:54.521Z,99421.91
2023-03-20T13:24:41.368Z,99418.97
2023-03-20T13:27:24.428Z,99414.84
2023-03-20T13:30:13.918Z,99411.44
2023-03-20T13:33:02.672Z,99414.34
2023-03-20T13:35:31.806Z,99412.72
2023-03-20T13:38:02.529Z,99406.69
2023-03-20T13:40:38.770Z,99407.50
2023-03-20T13:43:24.047Z,99409.13
2023-03-20T13:45:56.924Z,99406.25
2023-03-20T13:51:08.385Z,99398.31
2023-03-20T13:54:01.526Z,99398.03
2023-03-20T13:59:31.043Z,99390.59
2023-03-20T14:02:09.929Z,99391.44
2023-03-20T14:07:33.934Z,99386.03
2023-03-20T14:10:22.198Z,99391.94
2023-03-20T14:13:09.608Z,99385.13
2023-03-20T14:15:38.686Z,99384.66
2023-03-20T14:23:19.994Z,99372.81
2023-03-20T14:25:48.352Z,99371.84
2023-03-20T14:28:14.789Z,99376.81
2023-03-20T14:30:42.742Z,99377.47
2023-03-20T14:33:15.529Z,99367.88
2023-03-20T14:38:20.282Z,99356.66
2023-03-20T14:41:02.332Z,99353.09
2023-03-20T14:43:50.829Z,99352.78
2023-03-20T14:46:51.778Z,99355.19
2023-03-20T14:49:42.335Z,99375.72
2023-03-20T14:52:36.215Z,99351.78
2023-03-20T14:55:25.921Z,99357.63
2023-03-20T14:57:56.930Z,99357.63
2023-03-20T15:00:27.774Z,99356.16
2023-03-20T15:03:10.033Z,99350.66
2023-03-20T15:05:39.084Z,99353.13
2023-03-20T15:43:25.966Z,99362.94
2023-03-20T15:45:57.660Z,99362.28
2023-03-20T20:08:30.925Z,99209.72
2023-03-20T21:16:17.676Z,99171.69
2023-03-20T21:18:44.415Z,99171.16
2023-03-20T21:21:13.564Z,99170.81
2023-03-20T21:23:40.990Z,99168.69
2023-03-20T21:26:08.733Z,99171.13
2023-03-20T21:31:23.402Z,99167.56
2023-03-20T21:33:52.702Z,99161.75
2023-03-20T21:36:19.256Z,99162.09
2023-03-20T21:39:06.725Z,99163.75
2023-03-20T21:41:33.310Z,99160.34
2023-03-20T21:44:01.448Z,99164.38
2023-03-20T22:03:11.550Z,99140.59
2023-03-20T22:06:22.030Z,99142.03
2023-03-20T22:23:19.250Z,99126.81
2023-03-20T22:34:20.336Z,99118.03
2023-03-20T22:37:11.178Z,99112.84
2023-03-20T22:39:46.268Z,99122.91
2023-03-20T22:47:23.623Z,99102.47
2023-03-20T22:49:50.113Z,99095.81
2023-03-20T22:54:58.545Z,99089.97
2023-03-20T22:57:38.505Z,99090.44
2023-03-20T23:00:09.453Z,99082.31
2023-03-20T23:02:36.532Z,99078.28
2023-03-20T23:05:03.494Z,99083.63
2023-03-20T23:07:30.787Z,99075.84
2023-03-20T23:09:57.304Z,99085.91
2023-03-20T23:12:24.097Z,99073.56
2023-03-20T23:17:17.460Z,99069.84
2023-03-20T23:19:49.037Z,99068.41
2023-03-20T23:22:18.916Z,99066.44
2023-03-20T23:24:45.543Z,99061.75
2023-03-20T23:27:12.048Z,99061.41
2023-03-20T23:29:38.605Z,99057.03
2023-03-20T23:32:05.498Z,99046.31
2023-03-20T23:34:32.162Z,99043.41
2023-03-20T23:36:58.807Z,99035.13
2023-03-20T23:39:25.344Z,99040.66
2023-03-20T23:42:11.990Z,99033.81
2023-03-20T23:44:44.076Z,99031.22
2023-03-20T23:47:20.738Z,99027.19
2023-03-20T23:49:47.746Z,99034.63
2023-03-20T23:52:14.934Z,99024.75
2023-03-20T23:54:41.527Z,99025.22
2023-03-20T23:57:08.093Z,99020.03
2023-03-20T23:59:34.632Z,99021.66
